createdAt,value
2023-03-20T00:02:07.073Z,6.00
2023-03-20T00:04:34.422Z,1.50
2023-03-20T00:07:01.789Z,2.00
2023-03-20T00:09:28.820Z,3.50
2023-03-20T00:11:55.966Z,1.75
2023-03-20T00:14:25.140Z,3.50
2023-03-20T00:16:53.009Z,3.00
2023-03-20T00:19:24.505Z,3.50
2023-03-20T00:21:52.980Z,4.50
2023-03-20T00:24:20.692Z,5.00
2023-03-20T00:26:49.834Z,3.50
2023-03-20T00:29:27.822Z,1.00
2023-03-20T00:31:55.477Z,3.00
2023-03-20T00:34:24.532Z,7.00
2023-03-20T00:36:52.561Z,3.25
2023-03-20T00:39:20.372Z,6.00
2023-03-20T00:42:06.520Z,3.50
2023-03-20T00:44:59.888Z,3.00
2023-03-20T00:47:27.952Z,3.25
2023-03-20T00:49:56.223Z,3.00
2023-03-20T00:52:24.192Z,5.50
2023-03-20T00:54:51.147Z,6.50
2023-03-20T00:57:28.635Z,5.00
2023-03-20T01:00:09.499Z,5.25
2023-03-20T01:02:36.510Z,3.00
2023-03-20T01:05:05.932Z,6.25
2023-03-20T01:07:33.105Z,4.50
2023-03-20T01:10:23.599Z,6.50
2023-03-20T01:13:12.413Z,4.00
2023-03-20T01:16:05.162Z,4.50
2023-03-20T01:18:58.691Z,1.00
2023-03-20T01:24:15.097Z,2.00
2023-03-20T01:26:43.912Z,5.00
2023-03-20T01:29:20.522Z,4.00
2023-03-20T01:31:48.504Z,3.50
2023-03-20T01:34:16.822Z,3.00
2023-03-20T01:36:51.426Z,3.00
2023-03-20T01:39:21.954Z,4.00
2023-03-20T01:41:51.196Z,3.25
2023-03-20T01:44:31.338Z,6.50
2023-03-20T01:47:00.328Z,6.25
2023-03-20T01:49:28.523Z,4.25
2023-03-20T01:51:57.264Z,1.00
2023-03-20T01:54:35.802Z,2.75
2023-03-20T01:57:23.703Z,3.75
2023-03-20T01:59:56.069Z,2.25
2023-03-20T02:02:29.006Z,3.00
2023-03-20T02:05:02.661Z,2.00
2023-03-20T02:07:32.323Z,2.00
2023-03-20T02:10:28.965Z,3.00
2023-03-20T02:13:18.954Z,3.00
2023-03-20T02:16:28.033Z,0.00
2023-03-20T02:19:29.205Z,2.25
2023-03-20T02:22:58.138Z,3.75
2023-03-20T02:26:11.693Z,2.50
2023-03-20T02:28:48.155Z,12.25
2023-03-20T02:31:43.023Z,12.25
2023-03-20T02:34:09.964Z,9.25
2023-03-20T02:36:45.931Z,22.00
2023-03-20T02:39:19.622Z,17.75
2023-03-20T02:41:53.645Z,12.50
2023-03-20T02:44:20.538Z,12.25
2023-03-20T02:46:57.846Z,9.00
2023-03-20T02:49:27.759Z,9.25
2023-03-20T02:52:02.567Z,7.75
2023-03-20T02:54:38.454Z,5.75
2023-03-20T02:57:16.522Z,7.00
2023-03-20T03:00:03.980Z,6.50
2023-03-20T03:02:38.339Z,4.50
2023-03-20T03:05:14.492Z,5.50
2023-03-20T03:07:47.236Z,5.00
2023-03-20T03:10:30.132Z,6.50
2023-03-20T03:13:00.663Z,2.75
2023-03-20T03:15:39.334Z,6.75
2023-03-20T03:18:11.911Z,6.00
2023-03-20T03:20:40.237Z,6.25
2023-03-20T03:23:07.856Z,2.50
2023-03-20T03:25:38.659Z,5.00
2023-03-20T03:28:12.296Z,8.00
2023-03-20T03:30:40.266Z,3.25
2023-03-20T03:33:38.811Z,6.00
2023-03-20T03:36:14.484Z,3.75
2023-03-20T03:38:51.674Z,3.50
2023-03-20T03:41:24.479Z,3.25
2023-03-20T03:44:14.801Z,4.50
2023-03-20T03:46:51.953Z,6.00
2023-03-20T03:49:31.245Z,3.75
2023-03-20T03:52:06.926Z,4.00
2023-03-20T03:54:48.484Z,2.25
2023-03-20T03:57:23.076Z,3.25
2023-03-20T03:59:53.219Z,1.00
2023-03-20T04:02:22.638Z,2.00
2023-03-20T04:04:53.543Z,5.75
2023-03-20T04:07:21.699Z,3.50
2023-03-20T04:09:48.707Z,2.00
2023-03-20T04:12:36.594Z,5.50
2023-03-20T04:15:04.516Z,6.00
2023-03-20T04:17:31.771Z,6.50
2023-03-20T04:19:58.727Z,11.75
2023-03-20T04:22:25.878Z,14.00
2023-03-20T04:24:53.182Z,15.00
2023-03-20T04:27:21.222Z,13.25
2023-03-20T04:29:48.364Z,9.75
2023-03-20T04:32:15.338Z,8.75
2023-03-20T04:34:42.497Z,6.50
2023-03-20T04:37:09.634Z,6.50
2023-03-20T04:39:37.657Z,5.50
2023-03-20T04:42:06.203Z,7.00
2023-03-20T04:44:33.137Z,6.75
2023-03-20T04:47:00.600Z,4.00
2023-03-20T04:49:29.222Z,11.50
2023-03-20T04:51:56.683Z,10.75
2023-03-20T04:54:23.634Z,13.00
2023-03-20T04:56:50.786Z,6.25
2023-03-20T04:59:18.126Z,8.00
2023-03-20T05:01:45.166Z,6.00
2023-03-20T05:04:12.323Z,8.00
2023-03-20T05:06:42.162Z,4.00
2023-03-20T05:09:09.649Z,14.25
2023-03-20T05:11:36.795Z,12.50
2023-03-20T05:14:04.952Z,7.75
2023-03-20T05:16:31.925Z,5.00
2023-03-20T05:18:58.984Z,7.00
2023-03-20T05:21:26.029Z,8.00
2023-03-20T05:23:53.041Z,8.75
2023-03-20T05:26:20.143Z,7.25
2023-03-20T05:28:47.190Z,7.25
2023-03-20T05:31:14.200Z,8.25
2023-03-20T05:33:41.272Z,8.50
2023-03-20T05:36:08.884Z,7.75
2023-03-20T05:38:35.947Z,6.25
2023-03-20T05:41:02.877Z,9.00
2023-03-20T05:43:29.894Z,7.75
2023-03-20T05:45:57.357Z,9.00
2023-03-20T05:48:25.086Z,9.00
2023-03-20T05:50:52.144Z,7.00
2023-03-20T05:53:19.356Z,5.00
2023-03-20T05:55:46.463Z,7.75
2023-03-20T05:58:13.597Z,6.00
2023-03-20T06:00:40.947Z,12.00
2023-03-20T06:03:07.949Z,16.00
2023-03-20T06:05:36.241Z,11.25
2023-03-20T06:08:04.137Z,16.00
2023-03-20T06:10:31.508Z,13.50
2023-03-20T06:13:01.326Z,10.00
2023-03-20T06:15:29.018Z,11.50
2023-03-20T06:17:56.930Z,15.00
2023-03-20T06:20:24.547Z,8.50
2023-03-20T06:22:52.096Z,7.00
2023-03-20T06:25:20.260Z,7.00
2023-03-20T06:27:48.506Z,8.00
2023-03-20T06:30:16.809Z,7.75
2023-03-20T06:32:44.582Z,6.50
2023-03-20T06:35:12.457Z,8.00
2023-03-20T06:37:40.062Z,7.00
2023-03-20T06:40:07.886Z,9.25
2023-03-20T06:42:34.837Z,9.00
2023-03-20T06:45:01.842Z,8.50
2023-03-20T06:47:28.853Z,8.75
2023-03-20T06:49:56.144Z,10.75
2023-03-20T06:52:23.689Z,13.50
2023-03-20T06:54:51.390Z,10.50
2023-03-20T06:57:18.562Z,9.00
2023-03-20T06:59:45.863Z,6.00
2023-03-20T07:02:13.062Z,8.50
2023-03-20T07:04:40.631Z,10.50
2023-03-20T07:07:07.717Z,10.00
2023-03-20T07:09:35.168Z,8.25
2023-03-20T07:12:02.739Z,11.00
2023-03-20T07:14:29.789Z,13.25
2023-03-20T07:16:57.528Z,13.25
2023-03-20T07:19:24.641Z,11.75
2023-03-20T07:21:58.400Z,11.25
2023-03-20T07:24:25.430Z,8.75
2023-03-20T07:26:52.674Z,10.25
2023-03-20T07:29:19.696Z,7.50
2023-03-20T07:31:46.757Z,10.00
2023-03-20T07:34:13.898Z,9.00
2023-03-20T07:36:42.515Z,9.75
2023-03-20T07:39:11.373Z,5.00
2023-03-20T07:41:38.443Z,5.50
2023-03-20T07:44:08.273Z,13.75
2023-03-20T07:46:35.303Z,12.00
2023-03-20T07:49:02.440Z,16.50
2023-03-20T07:51:29.379Z,14.75
2023-03-20T07:53:56.484Z,18.50
2023-03-20T07:56:23.479Z,34.50
2023-03-20T07:58:50.658Z,13.50
2023-03-20T08:01:17.637Z,37.50
2023-03-20T08:03:44.693Z,41.25
2023-03-20T08:06:11.867Z,44.50
2023-03-20T08:08:39.256Z,42.75
2023-03-20T08:11:06.380Z,38.75
2023-03-20T08:13:33.400Z,42.75
2023-03-20T08:16:00.403Z,42.50
2023-03-20T08:18:27.453Z,42.00
2023-03-20T08:20:54.490Z,30.50
2023-03-20T08:23:21.660Z,44.50
2023-03-20T08:25:50.300Z,40.00
2023-03-20T08:28:18.276Z,40.25
2023-03-20T08:30:45.401Z,42.75
2023-03-20T08:33:13.552Z,38.25
2023-03-20T08:35:40.967Z,34.00
2023-03-20T08:38:08.013Z,32.50
2023-03-20T08:40:35.030Z,45.75
2023-03-20T08:43:01.991Z,37.25
2023-03-20T08:45:29.034Z,35.00
2023-03-20T08:47:55.999Z,30.00
2023-03-20T08:50:23.241Z,35.00
2023-03-20T08:52:50.288Z,23.50
2023-03-20T08:55:17.503Z,22.75
2023-03-20T08:57:44.576Z,13.75
2023-03-20T09:00:14.633Z,33.75
2023-03-20T09:02:44.271Z,29.25
2023-03-20T09:05:11.467Z,36.00
2023-03-20T09:07:38.510Z,21.25
2023-03-20T09:10:06.256Z,34.00
2023-03-20T09:12:34.175Z,27.50
2023-03-20T09:15:01.830Z,40.25
2023-03-20T09:17:29.083Z,37.25
2023-03-20T09:19:56.038Z,40.25
2023-03-20T09:22:23.220Z,33.75
2023-03-20T09:24:50.189Z,22.25
2023-03-20T09:27:17.150Z,21.00
2023-03-20T09:29:44.606Z,22.75
2023-03-20T09:32:13.998Z,35.75
2023-03-20T09:34:41.145Z,31.00
2023-03-20T09:37:08.301Z,30.75
2023-03-20T09:39:35.598Z,25.00
2023-03-20T09:42:48.789Z,20.75
2023-03-20T09:45:43.563Z,18.25
2023-03-20T09:48:41.871Z,13.00
2023-03-20T09:51:29.765Z,14.00
2023-03-20T09:54:14.920Z,46.75
2023-03-20T09:56:42.133Z,40.00
2023-03-20T09:59:12.844Z,40.50
2023-03-20T10:01:49.469Z,27.50
2023-03-20T10:04:16.683Z,36.25
2023-03-20T10:06:43.971Z,40.25
2023-03-20T10:09:26.827Z,32.75
2023-03-20T10:12:51.738Z,39.25
2023-03-20T10:15:47.256Z,37.50
2023-03-20T10:18:33.817Z,38.75
2023-03-20T10:21:07.639Z,37.25
2023-03-20T10:23:48.011Z,36.25
2023-03-20T10:26:19.577Z,34.25
2023-03-20T10:28:51.125Z,28.50
2023-03-20T10:31:55.884Z,30.00
2023-03-20T10:34:41.767Z,42.00
2023-03-20T10:37:23.162Z,34.50
2023-03-20T10:40:27.741Z,27.25
2023-03-20T10:42:59.330Z,40.50
2023-03-20T10:45:44.539Z,32.25
2023-03-20T10:48:38.383Z,28.50
2023-03-20T10:51:14.518Z,33.25
2023-03-20T10:53:49.187Z,37.00
2023-03-20T10:56:33.152Z,40.25
2023-03-20T10:59:07.192Z,28.25
2023-03-20T11:01:35.843Z,35.00
2023-03-20T11:04:03.195Z,29.75
2023-03-20T11:06:43.667Z,23.50
2023-03-20T11:09:20.076Z,38.00
2023-03-20T11:11:48.642Z,35.00
2023-03-20T11:14:23.095Z,28.00
2023-03-20T11:16:53.273Z,30.50
2023-03-20T11:19:22.318Z,28.00
2023-03-20T11:21:58.554Z,30.25
2023-03-20T11:24:46.695Z,31.75
2023-03-20T11:27:18.241Z,36.00
2023-03-20T11:29:49.901Z,35.50
2023-03-20T11:32:31.408Z,32.50
2023-03-20T11:35:31.404Z,36.00
2023-03-20T11:38:20.557Z,26.50
2023-03-20T11:40:49.670Z,25.75
2023-03-20T11:43:22.650Z,19.50
2023-03-20T11:46:00.462Z,26.50
2023-03-20T11:48:38.665Z,23.25
2023-03-20T11:51:09.550Z,33.25
2023-03-20T11:53:40.556Z,34.50
2023-03-20T11:56:26.550Z,29.25
2023-03-20T11:59:18.535Z,37.00
2023-03-20T12:01:56.058Z,36.50
2023-03-20T12:04:38.009Z,28.75
2023-03-20T12:07:30.957Z,34.00
2023-03-20T12:10:03.983Z,33.50
2023-03-20T12:12:43.445Z,36.00
2023-03-20T12:15:13.547Z,40.00
2023-03-20T12:18:03.318Z,34.00
2023-03-20T12:20:37.328Z,41.50
2023-03-20T12:23:10.625Z,36.00
2023-03-20T12:26:04.466Z,42.25
2023-03-20T12:28:42.028Z,38.75
2023-03-20T12:31:25.757Z,34.25
2023-03-20T12:33:55.364Z,35.50
2023-03-20T12:36:32.969Z,41.75
2023-03-20T12:39:03.472Z,39.00
2023-03-20T12:41:57.682Z,38.25
2023-03-20T12:44:37.535Z,40.75
2023-03-20T12:47:29.858Z,44.75
2023-03-20T12:49:59.789Z,43.75
2023-03-20T12:52:39.530Z,43.50
2023-03-20T12:55:26.334Z,39.00
2023-03-20T12:57:53.270Z,44.50
2023-03-20T13:00:33.334Z,40.50
2023-03-20T13:03:23.824Z,43.75
2023-03-20T13:06:14.629Z,44.00
2023-03-20T13:09:11.455Z,46.50
2023-03-20T13:11:46.926Z,49.25
2023-03-20T13:14:24.738Z,51.00
2023-03-20T13:17:02.829Z,51.50
2023-03-20T13:20:01.905Z,43.75
2023-03-20T13:23:02.427Z,44.50
2023-03-20T13:25:54.166Z,45.25
2023-03-20T13:28:32.109Z,37.75
2023-03-20T13:31:07.968Z,34.50
2023-03-20T13:33:43.702Z,40.00
2023-03-20T13:36:38.775Z,37.75
2023-03-20T13:39:31.450Z,36.75
2023-03-20T13:42:01.963Z,41.75
2023-03-20T13:44:31.964Z,39.00
2023-03-20T13:47:06.023Z,41.75
2023-03-20T13:49:39.534Z,35.25
2023-03-20T13:52:15.755Z,39.00
2023-03-20T13:55:11.877Z,36.00
2023-03-20T13:58:11.302Z,33.25
2023-03-20T14:00:55.864Z,38.25
2023-03-20T14:03:38.244Z,35.75
2023-03-20T14:06:31.024Z,37.75
2023-03-20T14:09:00.109Z,44.00
2023-03-20T14:11:35.664Z,38.75
2023-03-20T14:14:29.908Z,35.75
2023-03-20T14:17:20.002Z,39.50
2023-03-20T14:19:49.297Z,40.00
2023-03-20T14:22:27.891Z,35.50
2023-03-20T14:25:08.961Z,44.00
2023-03-20T14:27:53.057Z,45.00
2023-03-20T14:30:32.272Z,44.75
2023-03-20T14:33:00.621Z,42.00
2023-03-20T14:35:29.308Z,45.75
2023-03-20T14:38:09.916Z,42.00
2023-03-20T14:40:47.757Z,36.50
2023-03-20T14:43:26.828Z,36.25
2023-03-20T14:46:17.608Z,40.25
2023-03-20T14:48:53.174Z,46.00
2023-03-20T14:51:41.939Z,40.25
2023-03-20T14:54:30.101Z,49.00
2023-03-20T14:57:09.631Z,50.00
2023-03-20T14:59:37.714Z,47.25
2023-03-20T15:02:05.038Z,36.75
2023-03-20T15:04:39.285Z,29.75
2023-03-20T15:07:12.198Z,21.75
2023-03-20T15:09:43.873Z,18.75
2023-03-20T15:12:17.904Z,22.75
2023-03-20T15:14:53.865Z,16.25
2023-03-20T15:17:24.931Z,18.00
2023-03-20T15:20:01.776Z,15.50
2023-03-20T15:22:28.723Z,12.00
2023-03-20T15:24:57.285Z,10.25
2023-03-20T15:27:26.666Z,10.00
2023-03-20T15:29:56.219Z,12.75
2023-03-20T15:32:24.204Z,9.75
2023-03-20T15:34:51.471Z,12.25
2023-03-20T15:37:23.660Z,11.00
2023-03-20T15:39:55.670Z,12.00
2023-03-20T15:42:25.525Z,24.00
2023-03-20T15:44:55.471Z,20.75
2023-03-20T15:47:24.475Z,17.50
2023-03-20T15:49:54.578Z,20.75
2023-03-20T15:52:54.532Z,15.75
2023-03-20T15:55:25.028Z,15.50
2023-03-20T15:57:56.301Z,16.00
2023-03-20T16:00:29.304Z,11.25
2023-03-20T16:02:57.154Z,16.75
2023-03-20T16:05:27.785Z,12.25
2023-03-20T16:07:55.879Z,18.75
2023-03-20T16:10:30.503Z,15.00
2023-03-20T16:12:58.166Z,16.75
2023-03-20T16:15:28.066Z,19.00
2023-03-20T16:17:57.720Z,17.50
2023-03-20T16:20:28.196Z,20.50
2023-03-20T16:23:01.079Z,18.00
2023-03-20T16:25:28.153Z,10.00
2023-03-20T16:27:55.672Z,13.75
2023-03-20T16:30:24.400Z,19.25
2023-03-20T16:33:00.041Z,24.50
2023-03-20T16:35:33.013Z,23.50
2023-03-20T16:38:02.704Z,24.00
2023-03-20T16:40:34.086Z,17.50
2023-03-20T16:43:17.693Z,14.50
2023-03-20T16:45:49.613Z,22.25
2023-03-20T16:48:16.536Z,27.50
2023-03-20T16:50:45.700Z,24.50
2023-03-20T16:53:15.727Z,27.75
2023-03-20T16:55:45.717Z,27.00
2023-03-20T16:58:20.339Z,26.00
2023-03-20T17:00:53.118Z,29.75
2023-03-20T17:03:26.760Z,26.00
2023-03-20T17:06:27.669Z,18.00
2023-03-20T17:09:02.301Z,29.00
2023-03-20T17:11:35.085Z,23.25
2023-03-20T17:14:04.520Z,35.75
2023-03-20T17:16:33.411Z,35.50
2023-03-20T17:19:07.733Z,25.25
2023-03-20T17:21:35.008Z,35.00
2023-03-20T17:24:02.113Z,38.75
2023-03-20T17:26:29.359Z,41.50
2023-03-20T17:28:56.580Z,42.50
2023-03-20T17:31:23.763Z,45.25
2023-03-20T17:33:50.796Z,39.25
2023-03-20T17:36:28.216Z,48.75
2023-03-20T17:38:56.757Z,49.00
2023-03-20T17:41:24.629Z,39.50
2023-03-20T17:43:52.410Z,64.33
2023-03-20T17:46:21.551Z,139.00
2023-03-20T17:48:49.575Z,158.25
2023-03-20T17:51:16.670Z,148.00
2023-03-20T17:53:43.991Z,138.75
2023-03-20T17:56:15.830Z,143.50
2023-03-20T17:58:45.973Z,120.25
2023-03-20T18:01:14.169Z,132.00
2023-03-20T18:03:41.428Z,98.75
2023-03-20T18:06:15.899Z,74.25
2023-03-20T18:08:42.860Z,5.50
2023-03-20T18:11:09.994Z,73.33
2023-03-20T18:13:36.941Z,63.00
2023-03-20T18:16:04.193Z,55.33
2023-03-20T18:18:31.151Z,50.67
2023-03-20T18:20:59.612Z,47.00
2023-03-20T18:23:26.665Z,49.00
2023-03-20T18:25:53.728Z,48.00
2023-03-20T18:28:24.761Z,43.75
2023-03-20T18:30:51.959Z,49.33
2023-03-20T18:33:19.705Z,50.67
2023-03-20T18:35:47.337Z,46.00
2023-03-20T18:38:14.685Z,55.00
2023-03-20T18:40:44.445Z,39.75
2023-03-20T18:43:11.942Z,49.00
2023-03-20T18:45:40.241Z,45.25
2023-03-20T18:48:07.417Z,50.33
2023-03-20T18:50:38.098Z,46.33
2023-03-20T18:53:06.786Z,49.00
2023-03-20T18:55:34.881Z,39.00
2023-03-20T18:58:06.515Z,50.67
2023-03-20T19:00:40.552Z,54.67
2023-03-20T19:03:09.333Z,54.67
2023-03-20T19:05:36.666Z,51.00
2023-03-20T19:08:03.891Z,50.67
2023-03-20T19:10:39.670Z,60.33
2023-03-20T19:13:07.809Z,53.67
2023-03-20T19:15:37.018Z,54.33
2023-03-20T19:18:06.149Z,47.75
2023-03-20T19:20:42.069Z,47.75
2023-03-20T19:23:12.496Z,52.00
2023-03-20T19:25:41.958Z,48.00
2023-03-20T19:28:21.384Z,47.00
2023-03-20T19:30:49.360Z,56.33
2023-03-20T19:33:16.629Z,48.75
2023-03-20T19:36:01.893Z,47.00
2023-03-20T19:38:30.736Z,47.67
2023-03-20T19:40:57.990Z,57.00
2023-03-20T19:43:25.125Z,69.33
2023-03-20T19:45:58.377Z,91.00
2023-03-20T19:48:46.886Z,97.00
2023-03-20T19:51:22.452Z,67.67
2023-03-20T19:53:50.641Z,56.67
2023-03-20T19:56:19.525Z,53.33
2023-03-20T19:58:48.085Z,52.00
2023-03-20T20:01:18.579Z,45.25
2023-03-20T20:03:46.414Z,47.75
2023-03-20T20:06:14.578Z,40.75
2023-03-20T20:08:48.256Z,46.75
2023-03-20T20:11:21.202Z,53.00
2023-03-20T20:14:05.778Z,54.67
2023-03-20T20:16:36.862Z,56.00
2023-03-20T20:19:04.805Z,47.50
2023-03-20T20:24:22.251Z,31.00
2023-03-20T20:26:59.955Z,67.67
2023-03-20T20:29:34.409Z,69.33
2023-03-20T20:32:01.586Z,67.00
2023-03-20T20:40:05.672Z,54.33
2023-03-20T20:42:34.605Z,54.67
2023-03-20T20:45:01.572Z,46.75
2023-03-20T20:47:28.658Z,40.50
2023-03-20T20:49:56.057Z,33.75
2023-03-20T20:52:23.055Z,34.00
2023-03-20T20:54:50.495Z,29.00
2023-03-20T20:57:18.204Z,34.25
2023-03-20T20:59:45.157Z,37.50
2023-03-20T21:02:12.357Z,54.00
2023-03-20T21:04:41.256Z,50.33
2023-03-20T21:07:11.820Z,46.00
2023-03-20T21:09:39.686Z,42.50
2023-03-20T21:12:08.066Z,47.00
2023-03-20T21:14:35.523Z,48.00
2023-03-20T21:17:02.805Z,42.00
2023-03-20T21:19:57.030Z,39.75
2023-03-20T21:22:24.643Z,31.00
2023-03-20T21:25:03.627Z,24.25
2023-03-20T21:27:38.624Z,20.75
2023-03-20T21:30:07.302Z,17.50
2023-03-20T21:32:37.094Z,19.25
2023-03-20T21:35:09.639Z,21.50
2023-03-20T21:40:24.950Z,11.50
2023-03-20T21:42:52.334Z,16.00
2023-03-20T21:46:18.473Z,12.50
2023-03-20T21:48:49.502Z,34.75
2023-03-20T21:51:39.757Z,41.00
2023-03-20T21:59:57.344Z,49.25
2023-03-20T22:02:14.373Z,51.00
2023-03-20T22:05:37.356Z,47.25
2023-03-20T22:11:12.894Z,43.25
2023-03-20T22:16:42.904Z,38.00
2023-03-20T22:27:55.349Z,30.25
2023-03-20T22:30:31.324Z,33.00
2023-03-20T22:41:50.511Z,32.00
2023-03-20T22:46:49.759Z,20.25
2023-03-20T22:49:16.789Z,25.50
2023-03-20T22:51:55.641Z,27.25
2023-03-20T22:54:24.840Z,21.00
2023-03-20T22:56:51.833Z,19.75
2023-03-20T22:59:18.729Z,13.50
2023-03-20T23:01:46.180Z,11.00
2023-03-20T23:04:13.244Z,10.00
2023-03-20T23:06:41.377Z,7.00
2023-03-20T23:09:15.170Z,8.00
2023-03-20T23:11:43.130Z,7.75
2023-03-20T23:14:20.456Z,3.00
2023-03-20T23:16:49.354Z,3.75
2023-03-20T23:19:16.645Z,3.50
2023-03-20T23:21:43.622Z,3.00
2023-03-20T23:24:10.626Z,6.75
2023-03-20T23:26:37.652Z,2.00
2023-03-20T23:29:04.831Z,3.50
2023-03-20T23:31:31.841Z,4.50
2023-03-20T23:33:58.955Z,3.00
2023-03-20T23:36:42.463Z,3.25
2023-03-20T23:39:12.003Z,2.50
2023-03-20T23:42:10.019Z,5.00
2023-03-20T23:44:26.569Z,8.75
2023-03-20T23:46:54.954Z,10.50
2023-03-20T23:49:21.981Z,3.00
2023-03-20T23:51:49.058Z,21.00
2023-03-20T23:54:16.505Z,15.00
2023-03-20T23:56:43.557Z,14.75
2023-03-20T23:59:21.055Z,8.25
